N7265Y -KSAN
Flight info
| Callsign | N7265Y |
|---|---|
| Flight time | N/A |
| Altitude | |
| Route | PATTERN |
| Aircraft | C172/L-VGD/C |
Departure
| Time | N/A |
|---|---|
| Airport | - |
Arrival
| Time | 2026-04-23 00:51 |
|---|---|
| Airport | San Diego International Airport (KSAN) |
| Time | Latitude | Longitude | Altitude | Speed | Heading |
|---|---|---|---|---|---|
| 2026-04-23 00:51 | 32.73360 | -117.17885 | 22 ft | 0 kts | 17° |
| 2026-04-23 00:52 | 32.73362 | -117.17884 | 22 ft | 3 kts | 12° |
| 2026-04-23 00:52 | 32.73360 | -117.17931 | 21 ft | 2 kts | 263° |
| 2026-04-23 00:52 | 32.73359 | -117.17943 | 21 ft | 0 kts | 264° |
| 2026-04-23 00:52 | 32.73359 | -117.17945 | 21 ft | 4 kts | 255° |
| 2026-04-23 00:53 | 32.73246 | -117.17982 | 20 ft | 18 kts | 159° |
| 2026-04-23 00:53 | 32.73193 | -117.17819 | 20 ft | 29 kts | 104° |
| 2026-04-23 00:53 | 32.73132 | -117.17590 | 24 ft | 22 kts | 129° |
| 2026-04-23 00:53 | 32.73091 | -117.17552 | 24 ft | 0 kts | 144° |
| 2026-04-23 00:54 | 32.73057 | -117.17529 | 23 ft | 17 kts | 169° |
| 2026-04-23 00:55 | 32.73041 | -117.17665 | 23 ft | 33 kts | 285° |
| 2026-04-23 00:55 | 32.73151 | -117.18140 | 62 ft | 75 kts | 287° |
| 2026-04-23 00:55 | 32.73334 | -117.18793 | 165 ft | 87 kts | 292° |
| 2026-04-23 00:55 | 32.73502 | -117.19503 | 297 ft | 92 kts | 284° |
| 2026-04-23 00:56 | 32.73654 | -117.20248 | 430 ft | 93 kts | 283° |
| 2026-04-23 00:56 | 32.73860 | -117.20955 | 541 ft | 98 kts | 321° |
| 2026-04-23 00:56 | 32.74565 | -117.20898 | 612 ft | 109 kts | 11° |
| 2026-04-23 00:56 | 32.74907 | -117.20131 | 719 ft | 122 kts | 94° |
| 2026-04-23 00:57 | 32.74736 | -117.19100 | 721 ft | 122 kts | 103° |
| 2026-04-23 00:57 | 32.74535 | -117.18240 | 757 ft | 96 kts | 102° |
| 2026-04-23 00:57 | 32.74372 | -117.17497 | 810 ft | 90 kts | 103° |
| 2026-04-23 00:57 | 32.74213 | -117.16763 | 834 ft | 92 kts | 99° |
| 2026-04-23 00:58 | 32.73968 | -117.16077 | 854 ft | 93 kts | 154° |
| 2026-04-23 00:58 | 32.73330 | -117.16082 | 758 ft | 96 kts | 195° |
| 2026-04-23 00:58 | 32.72699 | -117.16308 | 589 ft | 90 kts | 240° |
| 2026-04-23 00:58 | 32.72819 | -117.16930 | 412 ft | 68 kts | 294° |
| 2026-04-23 00:59 | 32.72985 | -117.17413 | 216 ft | 60 kts | 289° |
| 2026-04-23 00:59 | 32.73080 | -117.17845 | 112 ft | 49 kts | 287° |
| 2026-04-23 00:59 | 32.73175 | -117.18221 | 53 ft | 49 kts | 288° |
| 2026-04-23 00:59 | 32.73263 | -117.18599 | 25 ft | 44 kts | 286° |
| 2026-04-23 01:00 | 32.73343 | -117.18928 | 20 ft | 44 kts | 285° |
| 2026-04-23 01:00 | 32.73434 | -117.19305 | 91 ft | 48 kts | 289° |
| 2026-04-23 01:00 | 32.73525 | -117.19693 | 179 ft | 52 kts | 285° |
| 2026-04-23 01:00 | 32.73656 | -117.20170 | 196 ft | 66 kts | 292° |
| 2026-04-23 01:01 | 32.73802 | -117.20692 | 290 ft | 66 kts | 285° |
| 2026-04-23 01:01 | 32.73978 | -117.21178 | 368 ft | 72 kts | 327° |
| 2026-04-23 01:01 | 32.74512 | -117.20988 | 537 ft | 81 kts | 16° |
| 2026-04-23 01:01 | 32.74942 | -117.20443 | 606 ft | 111 kts | 78° |
| 2026-04-23 01:02 | 32.74789 | -117.19485 | 649 ft | 123 kts | 108° |
| 2026-04-23 01:02 | 32.74543 | -117.18536 | 802 ft | 120 kts | 104° |
| 2026-04-23 01:02 | 32.74363 | -117.17561 | 875 ft | 120 kts | 100° |
| 2026-04-23 01:02 | 32.74191 | -117.16713 | 868 ft | 96 kts | 103° |
| 2026-04-23 01:03 | 32.73980 | -117.16023 | 869 ft | 83 kts | 142° |
| 2026-04-23 01:03 | 32.73423 | -117.15966 | 792 ft | 76 kts | 191° |
| 2026-04-23 01:03 | 32.72918 | -117.16091 | 732 ft | 74 kts | 210° |
| 2026-04-23 01:03 | 32.72768 | -117.16537 | 508 ft | 66 kts | 284° |
| 2026-04-23 01:04 | 32.72887 | -117.17052 | 346 ft | 61 kts | 288° |
| 2026-04-23 01:04 | 32.73000 | -117.17513 | 230 ft | 57 kts | 287° |
| 2026-04-23 01:04 | 32.73213 | -117.18385 | 26 ft | 48 kts | 287° |
| 2026-04-23 01:05 | 32.73300 | -117.18742 | 19 ft | 52 kts | 285° |
| 2026-04-23 01:05 | 32.73418 | -117.19246 | 96 ft | 70 kts | 288° |
| 2026-04-23 01:05 | 32.73573 | -117.19836 | 213 ft | 76 kts | 288° |
| 2026-04-23 01:05 | 32.73732 | -117.20445 | 371 ft | 75 kts | 289° |
| 2026-04-23 01:06 | 32.73906 | -117.21034 | 522 ft | 76 kts | 303° |
| 2026-04-23 01:06 | 32.74474 | -117.20931 | 491 ft | 101 kts | 33° |
| 2026-04-23 01:06 | 32.74947 | -117.20414 | 514 ft | 104 kts | 66° |
| 2026-04-23 01:06 | 32.74794 | -117.19548 | 619 ft | 108 kts | 104° |
| 2026-04-23 01:07 | 32.74618 | -117.18694 | 767 ft | 104 kts | 101° |
| 2026-04-23 01:07 | 32.74461 | -117.17865 | 897 ft | 105 kts | 97° |
| 2026-04-23 01:07 | 32.74319 | -117.16962 | 899 ft | 115 kts | 97° |
| 2026-04-23 01:07 | 32.74093 | -117.16053 | 898 ft | 117 kts | 115° |
| 2026-04-23 01:08 | 32.73385 | -117.15766 | 825 ft | 107 kts | 183° |
| 2026-04-23 01:08 | 32.72704 | -117.15896 | 696 ft | 90 kts | 218° |
| 2026-04-23 01:08 | 32.72626 | -117.16461 | 542 ft | 73 kts | 294° |
| 2026-04-23 01:08 | 32.72850 | -117.17013 | 375 ft | 74 kts | 294° |
| 2026-04-23 01:09 | 32.73012 | -117.17587 | 210 ft | 74 kts | 286° |
| 2026-04-23 01:09 | 32.73154 | -117.18125 | 63 ft | 64 kts | 286° |
| 2026-04-23 01:09 | 32.73255 | -117.18556 | 18 ft | 44 kts | 287° |
| 2026-04-23 01:09 | 32.73355 | -117.19002 | 74 ft | 62 kts | 284° |
| 2026-04-23 01:10 | 32.73484 | -117.19531 | 158 ft | 74 kts | 286° |
| 2026-04-23 01:10 | 32.73630 | -117.20146 | 285 ft | 80 kts | 285° |
| 2026-04-23 01:10 | 32.73775 | -117.20780 | 462 ft | 75 kts | 290° |
| 2026-04-23 01:10 | 32.74227 | -117.21063 | 531 ft | 91 kts | 2° |
| 2026-04-23 01:11 | 32.74831 | -117.20833 | 583 ft | 91 kts | 11° |
| 2026-04-23 01:11 | 32.75169 | -117.20239 | 571 ft | 113 kts | 96° |
| 2026-04-23 01:11 | 32.74841 | -117.19357 | 565 ft | 118 kts | 119° |
| 2026-04-23 01:11 | 32.74521 | -117.18473 | 662 ft | 113 kts | 100° |
| 2026-04-23 01:12 | 32.74351 | -117.17561 | 752 ft | 112 kts | 97° |
| 2026-04-23 01:12 | 32.74226 | -117.16779 | 817 ft | 88 kts | 96° |
| 2026-04-23 01:12 | 32.74047 | -117.16109 | 787 ft | 90 kts | 141° |
| 2026-04-23 01:12 | 32.73443 | -117.16018 | 652 ft | 85 kts | 194° |
| 2026-04-23 01:13 | 32.72937 | -117.16128 | 605 ft | 65 kts | 207° |
| 2026-04-23 01:13 | 32.72678 | -117.16451 | 465 ft | 58 kts | 284° |
| 2026-04-23 01:13 | 32.72833 | -117.16894 | 362 ft | 60 kts | 289° |
| 2026-04-23 01:13 | 32.72952 | -117.17376 | 262 ft | 60 kts | 286° |
| 2026-04-23 01:14 | 32.73078 | -117.17846 | 116 ft | 54 kts | 289° |
| 2026-04-23 01:14 | 32.73176 | -117.18237 | 33 ft | 46 kts | 286° |
| 2026-04-23 01:14 | 32.73259 | -117.18565 | 18 ft | 48 kts | 285° |
| 2026-04-23 01:14 | 32.73360 | -117.19008 | 131 ft | 60 kts | 287° |
| 2026-04-23 01:15 | 32.73471 | -117.19501 | 246 ft | 62 kts | 282° |
| 2026-04-23 01:15 | 32.73603 | -117.20007 | 341 ft | 69 kts | 286° |
| 2026-04-23 01:15 | 32.73724 | -117.20602 | 456 ft | 78 kts | 278° |
| 2026-04-23 01:15 | 32.73976 | -117.21151 | 563 ft | 84 kts | 334° |
| 2026-04-23 01:16 | 32.74579 | -117.20908 | 642 ft | 94 kts | 17° |
| 2026-04-23 01:16 | 32.75172 | -117.20458 | 670 ft | 117 kts | 62° |
| 2026-04-23 01:16 | 32.74968 | -117.19508 | 774 ft | 120 kts | 113° |
| 2026-04-23 01:16 | 32.74630 | -117.18616 | 938 ft | 120 kts | 114° |
| 2026-04-23 01:17 | 32.74264 | -117.17710 | 1034 ft | 122 kts | 116° |
| 2026-04-23 01:17 | 32.74081 | -117.16705 | 1039 ft | 117 kts | 99° |
| 2026-04-23 01:17 | 32.73950 | -117.15882 | 1053 ft | 92 kts | 99° |
| 2026-04-23 01:17 | 32.73801 | -117.15179 | 1018 ft | 85 kts | 104° |
| 2026-04-23 01:18 | 32.73425 | -117.14627 | 878 ft | 93 kts | 163° |
| 2026-04-23 01:18 | 32.72821 | -117.14555 | 683 ft | 76 kts | 210° |
| 2026-04-23 01:18 | 32.72562 | -117.14988 | 528 ft | 58 kts | 259° |
| 2026-04-23 01:18 | 32.72507 | -117.15447 | 466 ft | 54 kts | 276° |
| 2026-04-23 01:19 | 32.72562 | -117.15887 | 411 ft | 54 kts | 286° |
| 2026-04-23 01:19 | 32.72673 | -117.16317 | 353 ft | 53 kts | 288° |
| 2026-04-23 01:19 | 32.72780 | -117.16704 | 286 ft | 46 kts | 289° |
| 2026-04-23 01:19 | 32.72882 | -117.17063 | 239 ft | 47 kts | 287° |
| 2026-04-23 01:20 | 32.72982 | -117.17453 | 194 ft | 50 kts | 288° |
| 2026-04-23 01:20 | 32.73086 | -117.17858 | 113 ft | 48 kts | 284° |
| 2026-04-23 01:20 | 32.73172 | -117.18231 | 23 ft | 44 kts | 287° |
| 2026-04-23 01:20 | 32.73209 | -117.18437 | 17 ft | 13 kts | 252° |
| 2026-04-23 01:21 | 32.73145 | -117.18470 | 16 ft | 10 kts | 153° |
| 2026-04-23 01:21 | 32.73137 | -117.18465 | 16 ft | 0 kts | 136° |
| 2026-04-23 01:21 | 32.73135 | -117.18462 | 16 ft | 3 kts | 133° |
| 2026-04-23 01:22 | 32.73117 | -117.18404 | 16 ft | 0 kts | 107° |
| 2026-04-23 01:22 | 32.73087 | -117.18282 | 16 ft | 31 kts | 103° |
| 2026-04-23 01:22 | 32.73029 | -117.18042 | 16 ft | 26 kts | 104° |
| 2026-04-23 01:22 | 32.72984 | -117.17855 | 19 ft | 21 kts | 105° |
| 2026-04-23 01:23 | 32.72948 | -117.17699 | 21 ft | 12 kts | 86° |
| 2026-04-23 01:23 | 32.72956 | -117.17667 | 22 ft | 0 kts | 68° |
| 2026-04-23 01:24 | 32.72974 | -117.17622 | 22 ft | 21 kts | 41° |
| 2026-04-23 01:24 | 32.73052 | -117.17723 | 22 ft | 34 kts | 283° |
| 2026-04-23 01:24 | 32.73167 | -117.18203 | 28 ft | 78 kts | 288° |
| 2026-04-23 01:24 | 32.73312 | -117.18820 | 184 ft | 78 kts | 285° |
| 2026-04-23 01:25 | 32.73491 | -117.19491 | 296 ft | 89 kts | 289° |
| 2026-04-23 01:25 | 32.73681 | -117.20225 | 382 ft | 95 kts | 289° |
| 2026-04-23 01:25 | 32.73850 | -117.20983 | 517 ft | 95 kts | 290° |
| 2026-04-23 01:25 | 32.74440 | -117.21158 | 634 ft | 105 kts | 15° |
| 2026-04-23 01:26 | 32.75016 | -117.20682 | 638 ft | 108 kts | 66° |
| 2026-04-23 01:26 | 32.74841 | -117.19775 | 577 ft | 108 kts | 111° |
| 2026-04-23 01:26 | 32.74600 | -117.18982 | 670 ft | 96 kts | 110° |
| 2026-04-23 01:26 | 32.74374 | -117.18220 | 761 ft | 99 kts | 104° |
| 2026-04-23 01:27 | 32.74218 | -117.17498 | 863 ft | 83 kts | 101° |
| 2026-04-23 01:27 | 32.74120 | -117.16830 | 905 ft | 76 kts | 89° |
| 2026-04-23 01:27 | 32.74006 | -117.16144 | 877 ft | 91 kts | 119° |
| 2026-04-23 01:27 | 32.73412 | -117.15971 | 776 ft | 87 kts | 192° |
| 2026-04-23 01:28 | 32.72917 | -117.16103 | 681 ft | 67 kts | 234° |
| 2026-04-23 01:28 | 32.72816 | -117.16627 | 479 ft | 68 kts | 281° |
| 2026-04-23 01:28 | 32.72913 | -117.17155 | 320 ft | 64 kts | 288° |
| 2026-04-23 01:28 | 32.73037 | -117.17635 | 212 ft | 58 kts | 287° |
| 2026-04-23 01:29 | 32.73145 | -117.18093 | 70 ft | 52 kts | 289° |
| 2026-04-23 01:29 | 32.73233 | -117.18456 | 17 ft | 38 kts | 288° |
| 2026-04-23 01:29 | 32.73332 | -117.18892 | 73 ft | 62 kts | 286° |
| 2026-04-23 01:29 | 32.73446 | -117.19390 | 186 ft | 68 kts | 286° |
| 2026-04-23 01:30 | 32.73606 | -117.19955 | 328 ft | 76 kts | 290° |
| 2026-04-23 01:30 | 32.73785 | -117.20563 | 467 ft | 78 kts | 290° |
| 2026-04-23 01:30 | 32.73940 | -117.21172 | 601 ft | 79 kts | 316° |
| 2026-04-23 01:30 | 32.74518 | -117.20959 | 637 ft | 93 kts | 12° |
| 2026-04-23 01:31 | 32.75080 | -117.20657 | 846 ft | 91 kts | 39° |
| 2026-04-23 01:31 | 32.75017 | -117.19812 | 752 ft | 118 kts | 111° |
| 2026-04-23 01:31 | 32.74697 | -117.18944 | 802 ft | 105 kts | 110° |
| 2026-04-23 01:31 | 32.74451 | -117.18188 | 823 ft | 96 kts | 112° |
| 2026-04-23 01:32 | 32.74198 | -117.17479 | 854 ft | 93 kts | 112° |
| 2026-04-23 01:32 | 32.73983 | -117.16763 | 828 ft | 92 kts | 109° |
| 2026-04-23 01:32 | 32.73759 | -117.16052 | 780 ft | 94 kts | 143° |
| 2026-04-23 01:32 | 32.73120 | -117.16003 | 658 ft | 91 kts | 197° |
| 2026-04-23 01:33 | 32.72676 | -117.16406 | 527 ft | 85 kts | 268° |
| 2026-04-23 01:33 | 32.72856 | -117.17014 | 381 ft | 68 kts | 295° |
| 2026-04-23 01:33 | 32.72997 | -117.17516 | 208 ft | 62 kts | 289° |
| 2026-04-23 01:33 | 32.73120 | -117.17995 | 85 ft | 58 kts | 287° |
| 2026-04-23 01:34 | 32.73225 | -117.18437 | 22 ft | 50 kts | 287° |
| 2026-04-23 01:34 | 32.73317 | -117.18820 | 22 ft | 60 kts | 289° |
| 2026-04-23 01:34 | 32.73461 | -117.19358 | 135 ft | 73 kts | 296° |
| 2026-04-23 01:34 | 32.73922 | -117.19476 | 358 ft | 77 kts | 2° |
| 2026-04-23 01:35 | 32.74442 | -117.19350 | 580 ft | 75 kts | 357° |
| 2026-04-23 01:35 | 32.74892 | -117.19029 | 590 ft | 109 kts | 77° |
| 2026-04-23 01:35 | 32.74654 | -117.18206 | 689 ft | 106 kts | 108° |
| 2026-04-23 01:35 | 32.74374 | -117.17454 | 686 ft | 91 kts | 122° |
| 2026-04-23 01:36 | 32.74054 | -117.16840 | 671 ft | 86 kts | 120° |
| 2026-04-23 01:36 | 32.73544 | -117.16670 | 589 ft | 85 kts | 196° |
| 2026-04-23 01:36 | 32.72977 | -117.16863 | 477 ft | 81 kts | 225° |
| 2026-04-23 01:36 | 32.72965 | -117.17401 | 253 ft | 59 kts | 282° |
| 2026-04-23 01:37 | 32.73092 | -117.17821 | 118 ft | 51 kts | 287° |
| 2026-04-23 01:37 | 32.73173 | -117.18213 | 32 ft | 46 kts | 287° |
| 2026-04-23 01:37 | 32.73251 | -117.18533 | 18 ft | 42 kts | 286° |
| 2026-04-23 01:37 | 32.73360 | -117.18973 | 116 ft | 63 kts | 288° |
| 2026-04-23 01:38 | 32.73473 | -117.19550 | 216 ft | 76 kts | 284° |
| 2026-04-23 01:38 | 32.73661 | -117.20100 | 298 ft | 68 kts | 293° |
| 2026-04-23 01:38 | 32.73821 | -117.20610 | 368 ft | 65 kts | 283° |
| 2026-04-23 01:38 | 32.74218 | -117.20789 | 353 ft | 79 kts | 11° |
| 2026-04-23 01:39 | 32.74721 | -117.20510 | 509 ft | 79 kts | 30° |
| 2026-04-23 01:39 | 32.74758 | -117.19811 | 573 ft | 95 kts | 91° |
| 2026-04-23 01:39 | 32.74677 | -117.19038 | 690 ft | 87 kts | 99° |
| 2026-04-23 01:39 | 32.74561 | -117.18394 | 681 ft | 79 kts | 99° |
| 2026-04-23 01:40 | 32.74417 | -117.17769 | 719 ft | 79 kts | 102° |
| 2026-04-23 01:40 | 32.74258 | -117.17102 | 754 ft | 81 kts | 103° |
| 2026-04-23 01:40 | 32.74095 | -117.16446 | 842 ft | 84 kts | 104° |
| 2026-04-23 01:40 | 32.73910 | -117.15767 | 906 ft | 88 kts | 108° |
| 2026-04-23 01:41 | 32.73694 | -117.15097 | 1022 ft | 85 kts | 105° |
| 2026-04-23 01:41 | 32.73447 | -117.14415 | 1050 ft | 91 kts | 124° |
| 2026-04-23 01:41 | 32.72867 | -117.14304 | 996 ft | 92 kts | 204° |
| 2026-04-23 01:41 | 32.72482 | -117.14753 | 789 ft | 80 kts | 275° |
| 2026-04-23 01:42 | 32.72524 | -117.15341 | 727 ft | 65 kts | 278° |
| 2026-04-23 01:42 | 32.72604 | -117.15826 | 662 ft | 58 kts | 284° |
| 2026-04-23 01:42 | 32.72691 | -117.16294 | 559 ft | 59 kts | 284° |
| 2026-04-23 01:42 | 32.72810 | -117.16756 | 415 ft | 58 kts | 284° |
| 2026-04-23 01:43 | 32.72913 | -117.17207 | 280 ft | 55 kts | 288° |
| 2026-04-23 01:43 | 32.73025 | -117.17630 | 179 ft | 54 kts | 288° |
| 2026-04-23 01:43 | 32.73135 | -117.18067 | 77 ft | 54 kts | 286° |
| 2026-04-23 01:43 | 32.73231 | -117.18462 | 17 ft | 42 kts | 288° |
| 2026-04-23 01:44 | 32.73306 | -117.18773 | 19 ft | 38 kts | 285° |
| 2026-04-23 01:44 | 32.73396 | -117.19163 | 60 ft | 59 kts | 286° |
| 2026-04-23 01:44 | 32.73538 | -117.19719 | 156 ft | 75 kts | 286° |
| 2026-04-23 01:44 | 32.74005 | -117.19820 | 323 ft | 86 kts | 18° |
| 2026-04-23 01:45 | 32.74515 | -117.19478 | 561 ft | 80 kts | 17° |
| 2026-04-23 01:45 | 32.74742 | -117.18895 | 576 ft | 110 kts | 109° |
| 2026-04-23 01:45 | 32.74524 | -117.18115 | 757 ft | 93 kts | 105° |
| 2026-04-23 01:45 | 32.74314 | -117.17394 | 906 ft | 93 kts | 111° |
| 2026-04-23 01:46 | 32.73992 | -117.16693 | 984 ft | 97 kts | 123° |
| 2026-04-23 01:46 | 32.73551 | -117.16296 | 804 ft | 78 kts | 202° |
| 2026-04-23 01:46 | 32.73092 | -117.16549 | 615 ft | 68 kts | 217° |
| 2026-04-23 01:46 | 32.72868 | -117.16962 | 410 ft | 64 kts | 278° |
| 2026-04-23 01:47 | 32.72989 | -117.17477 | 223 ft | 64 kts | 287° |
| 2026-04-23 01:47 | 32.73111 | -117.17960 | 79 ft | 52 kts | 288° |
| 2026-04-23 01:47 | 32.73201 | -117.18335 | 17 ft | 41 kts | 287° |
| 2026-04-23 01:47 | 32.73276 | -117.18684 | 18 ft | 58 kts | 283° |
| 2026-04-23 01:48 | 32.73423 | -117.19180 | 128 ft | 71 kts | 288° |
| 2026-04-23 01:48 | 32.73540 | -117.19783 | 247 ft | 78 kts | 284° |
| 2026-04-23 01:48 | 32.73725 | -117.20431 | 330 ft | 82 kts | 287° |
| 2026-04-23 01:48 | 32.73910 | -117.21068 | 456 ft | 81 kts | 300° |
| 2026-04-23 01:49 | 32.74489 | -117.21049 | 485 ft | 99 kts | 26° |
| 2026-04-23 01:49 | 32.74972 | -117.20489 | 624 ft | 103 kts | 64° |
| 2026-04-23 01:49 | 32.74935 | -117.19614 | 702 ft | 107 kts | 96° |
| 2026-04-23 01:49 | 32.74746 | -117.18737 | 796 ft | 110 kts | 103° |
| 2026-04-23 01:50 | 32.74558 | -117.17883 | 931 ft | 106 kts | 103° |
| 2026-04-23 01:50 | 32.74372 | -117.17069 | 966 ft | 97 kts | 103° |
| 2026-04-23 01:50 | 32.74186 | -117.16325 | 1008 ft | 89 kts | 104° |
| 2026-04-23 01:50 | 32.73998 | -117.15627 | 1012 ft | 86 kts | 105° |
| 2026-04-23 01:51 | 32.73805 | -117.14948 | 1001 ft | 89 kts | 108° |
| 2026-04-23 01:51 | 32.73586 | -117.14265 | 998 ft | 87 kts | 110° |
| 2026-04-23 01:51 | 32.73408 | -117.13582 | 1017 ft | 86 kts | 102° |
| 2026-04-23 01:51 | 32.73242 | -117.12905 | 1038 ft | 85 kts | 103° |
| 2026-04-23 01:52 | 32.73051 | -117.12236 | 1031 ft | 88 kts | 128° |
| 2026-04-23 01:52 | 32.72477 | -117.12163 | 905 ft | 83 kts | 213° |
| 2026-04-23 01:52 | 32.72244 | -117.12663 | 909 ft | 69 kts | 263° |
| 2026-04-23 01:52 | 32.72200 | -117.13197 | 936 ft | 63 kts | 272° |
| 2026-04-23 01:53 | 32.72221 | -117.13721 | 947 ft | 62 kts | 276° |
| 2026-04-23 01:53 | 32.72292 | -117.14233 | 974 ft | 62 kts | 284° |
| 2026-04-23 01:53 | 32.72389 | -117.14745 | 922 ft | 68 kts | 284° |
| 2026-04-23 01:53 | 32.72479 | -117.15294 | 890 ft | 62 kts | 283° |
| 2026-04-23 01:54 | 32.72568 | -117.15752 | 745 ft | 57 kts | 285° |
| 2026-04-23 01:54 | 32.72666 | -117.16196 | 616 ft | 53 kts | 287° |
| 2026-04-23 01:54 | 32.72767 | -117.16622 | 462 ft | 54 kts | 287° |
| 2026-04-23 01:54 | 32.72871 | -117.17043 | 357 ft | 54 kts | 288° |
| 2026-04-23 01:55 | 32.72983 | -117.17471 | 254 ft | 56 kts | 284° |
| 2026-04-23 01:55 | 32.73102 | -117.17914 | 121 ft | 53 kts | 284° |
| 2026-04-23 01:55 | 32.73194 | -117.18306 | 21 ft | 44 kts | 286° |
| 2026-04-23 01:55 | 32.73276 | -117.18645 | 18 ft | 55 kts | 286° |
| 2026-04-23 01:56 | 32.73400 | -117.19151 | 95 ft | 77 kts | 291° |
| 2026-04-23 01:56 | 32.73561 | -117.19828 | 200 ft | 91 kts | 283° |
| 2026-04-23 01:56 | 32.73723 | -117.20579 | 323 ft | 95 kts | 282° |
| 2026-04-23 01:56 | 32.74009 | -117.21232 | 482 ft | 95 kts | 341° |
| 2026-04-23 01:57 | 32.74666 | -117.21010 | 660 ft | 101 kts | 15° |
| 2026-04-23 01:57 | 32.75091 | -117.20370 | 699 ft | 122 kts | 90° |
| 2026-04-23 01:57 | 32.74873 | -117.19381 | 744 ft | 112 kts | 108° |
| 2026-04-23 01:57 | 32.74661 | -117.18589 | 806 ft | 95 kts | 99° |
| 2026-04-23 01:58 | 32.74521 | -117.17818 | 816 ft | 94 kts | 101° |
| 2026-04-23 01:58 | 32.74282 | -117.17111 | 827 ft | 93 kts | 113° |
| 2026-04-23 01:58 | 32.73951 | -117.16476 | 792 ft | 93 kts | 167° |
| 2026-04-23 01:58 | 32.73351 | -117.16513 | 659 ft | 82 kts | 196° |
| 2026-04-23 01:59 | 32.72900 | -117.16788 | 475 ft | 70 kts | 261° |
| 2026-04-23 01:59 | 32.72945 | -117.17359 | 251 ft | 70 kts | 291° |
| 2026-04-23 01:59 | 32.73085 | -117.17879 | 108 ft | 62 kts | 289° |
| 2026-04-23 01:59 | 32.73198 | -117.18323 | 27 ft | 49 kts | 289° |
| 2026-04-23 02:00 | 32.73293 | -117.18727 | 48 ft | 59 kts | 287° |
| 2026-04-23 02:00 | 32.73424 | -117.19289 | 123 ft | 77 kts | 283° |
| 2026-04-23 02:00 | 32.73571 | -117.19920 | 266 ft | 78 kts | 286° |
| 2026-04-23 02:00 | 32.73891 | -117.20391 | 393 ft | 85 kts | 350° |
| 2026-04-23 02:01 | 32.74479 | -117.20256 | 574 ft | 83 kts | 2° |
| 2026-04-23 02:01 | 32.74809 | -117.19685 | 581 ft | 112 kts | 94° |
| 2026-04-23 02:01 | 32.74684 | -117.18822 | 801 ft | 100 kts | 97° |
| 2026-04-23 02:01 | 32.74525 | -117.18064 | 906 ft | 92 kts | 101° |
| 2026-04-23 02:02 | 32.74370 | -117.17338 | 1032 ft | 90 kts | 102° |
| 2026-04-23 02:02 | 32.74176 | -117.16635 | 1259 ft | 87 kts | 105° |
| 2026-04-23 02:02 | 32.73974 | -117.15951 | 1472 ft | 89 kts | 103° |
| 2026-04-23 02:02 | 32.73817 | -117.15221 | 1658 ft | 92 kts | 97° |
| 2026-04-23 02:03 | 32.73663 | -117.14436 | 1793 ft | 98 kts | 97° |
| 2026-04-23 02:03 | 32.73552 | -117.13636 | 1974 ft | 97 kts | 92° |
| 2026-04-23 02:03 | 32.73413 | -117.12854 | 2154 ft | 98 kts | 103° |
| 2026-04-23 02:03 | 32.73194 | -117.12086 | 2307 ft | 100 kts | 103° |
| 2026-04-23 02:04 | 32.72928 | -117.11287 | 2341 ft | 110 kts | 116° |
| 2026-04-23 02:04 | 32.72534 | -117.10490 | 2341 ft | 108 kts | 112° |
| 2026-04-23 02:04 | 32.72349 | -117.09649 | 2310 ft | 103 kts | 99° |
| 2026-04-23 02:04 | 32.72186 | -117.08843 | 2355 ft | 96 kts | 98° |
| 2026-04-23 02:05 | 32.72059 | -117.08061 | 2346 ft | 99 kts | 112° |
| 2026-04-23 02:05 | 32.71412 | -117.07782 | 2066 ft | 111 kts | 186° |
| 2026-04-23 02:05 | 32.70806 | -117.08118 | 1848 ft | 98 kts | 242° |
| 2026-04-23 02:05 | 32.70708 | -117.08934 | 1486 ft | 118 kts | 277° |
| 2026-04-23 02:06 | 32.70910 | -117.09881 | 1377 ft | 116 kts | 292° |
| 2026-04-23 02:06 | 32.71236 | -117.10716 | 1429 ft | 110 kts | 296° |
| 2026-04-23 02:06 | 32.71540 | -117.11536 | 1465 ft | 106 kts | 289° |
| 2026-04-23 02:06 | 32.71800 | -117.12374 | 1387 ft | 114 kts | 293° |
| 2026-04-23 02:07 | 32.72099 | -117.13240 | 1304 ft | 94 kts | 287° |
| 2026-04-23 02:07 | 32.72228 | -117.13889 | 1186 ft | 73 kts | 281° |
| 2026-04-23 02:07 | 32.72309 | -117.14447 | 1094 ft | 67 kts | 283° |
| 2026-04-23 02:07 | 32.72409 | -117.14971 | 996 ft | 63 kts | 287° |
| 2026-04-23 02:08 | 32.72535 | -117.15471 | 893 ft | 64 kts | 288° |
| 2026-04-23 02:08 | 32.72659 | -117.15998 | 759 ft | 66 kts | 283° |
| 2026-04-23 02:08 | 32.72769 | -117.16544 | 608 ft | 69 kts | 283° |
| 2026-04-23 02:08 | 32.72891 | -117.17122 | 401 ft | 74 kts | 288° |
| 2026-04-23 02:09 | 32.73035 | -117.17662 | 165 ft | 63 kts | 289° |
| 2026-04-23 02:09 | 32.73146 | -117.18123 | 52 ft | 55 kts | 285° |
| 2026-04-23 02:09 | 32.73249 | -117.18529 | 18 ft | 52 kts | 286° |
| 2026-04-23 02:09 | 32.73491 | -117.18860 | 126 ft | 66 kts | 355° |
| 2026-04-23 02:10 | 32.73948 | -117.18761 | 305 ft | 68 kts | 6° |
| 2026-04-23 02:10 | 32.74291 | -117.18316 | 416 ft | 97 kts | 81° |
| 2026-04-23 02:10 | 32.74173 | -117.17514 | 617 ft | 96 kts | 103° |
| 2026-04-23 02:10 | 32.74005 | -117.16743 | 787 ft | 97 kts | 98° |
| 2026-04-23 02:11 | 32.73850 | -117.15947 | 942 ft | 99 kts | 99° |
| 2026-04-23 02:11 | 32.73702 | -117.15132 | 1088 ft | 100 kts | 100° |
| 2026-04-23 02:11 | 32.73523 | -117.14365 | 1303 ft | 96 kts | 106° |
| 2026-04-23 02:11 | 32.73306 | -117.13586 | 1401 ft | 105 kts | 109° |
| 2026-04-23 02:12 | 32.73027 | -117.12761 | 1490 ft | 106 kts | 118° |
| 2026-04-23 02:12 | 32.72361 | -117.12531 | 1279 ft | 110 kts | 205° |
| 2026-04-23 02:12 | 32.72047 | -117.13197 | 1052 ft | 78 kts | 264° |
| 2026-04-23 02:12 | 32.72066 | -117.13737 | 911 ft | 53 kts | 282° |
| 2026-04-23 02:13 | 32.72172 | -117.14150 | 814 ft | 54 kts | 288° |
| 2026-04-23 02:13 | 32.72259 | -117.14597 | 770 ft | 56 kts | 282° |
| 2026-04-23 02:13 | 32.72376 | -117.15048 | 750 ft | 58 kts | 289° |
| 2026-04-23 02:13 | 32.72492 | -117.15527 | 693 ft | 63 kts | 283° |
| 2026-04-23 02:14 | 32.72619 | -117.16024 | 628 ft | 61 kts | 289° |
| 2026-04-23 02:14 | 32.72733 | -117.16516 | 552 ft | 65 kts | 284° |
| 2026-04-23 02:14 | 32.72864 | -117.17063 | 371 ft | 71 kts | 290° |
| 2026-04-23 02:14 | 32.73013 | -117.17610 | 199 ft | 65 kts | 286° |
| 2026-04-23 02:15 | 32.73241 | -117.18501 | 17 ft | 43 kts | 288° |
| 2026-04-23 02:15 | 32.73345 | -117.18941 | 96 ft | 61 kts | 285° |
| 2026-04-23 02:15 | 32.73439 | -117.19389 | 331 ft | 53 kts | 283° |
| 2026-04-23 02:16 | 32.73507 | -117.19874 | 464 ft | 71 kts | 284° |
| 2026-04-23 02:16 | 32.73796 | -117.20431 | 509 ft | 93 kts | 332° |
| 2026-04-23 02:16 | 32.74453 | -117.20416 | 691 ft | 99 kts | 15° |
| 2026-04-23 02:16 | 32.75088 | -117.20023 | 705 ft | 114 kts | 21° |
| 2026-04-23 02:17 | 32.75824 | -117.19703 | 749 ft | 109 kts | 8° |
| 2026-04-23 02:17 | 32.76522 | -117.19801 | 798 ft | 107 kts | 321° |
| 2026-04-23 02:17 | 32.77139 | -117.19759 | 730 ft | 129 kts | 70° |
| 2026-04-23 02:17 | 32.76839 | -117.18797 | 827 ft | 123 kts | 128° |
| 2026-04-23 02:18 | 32.76277 | -117.18070 | 991 ft | 117 kts | 138° |
| 2026-04-23 02:18 | 32.75688 | -117.17445 | 1193 ft | 116 kts | 135° |
| 2026-04-23 02:18 | 32.75119 | -117.16788 | 1451 ft | 107 kts | 138° |
| 2026-04-23 02:18 | 32.74528 | -117.16145 | 1299 ft | 127 kts | 134° |
| 2026-04-23 02:19 | 32.73944 | -117.15339 | 972 ft | 126 kts | 138° |
| 2026-04-23 02:19 | 32.73216 | -117.15086 | 816 ft | 107 kts | 191° |
| 2026-04-23 02:19 | 32.72721 | -117.15283 | 790 ft | 60 kts | 234° |
| 2026-04-23 02:19 | 32.72655 | -117.15708 | 629 ft | 55 kts | 281° |
| 2026-04-23 02:20 | 32.72702 | -117.16155 | 491 ft | 55 kts | 280° |
| 2026-04-23 02:20 | 32.72777 | -117.16615 | 444 ft | 60 kts | 282° |
| 2026-04-23 02:20 | 32.72882 | -117.17094 | 302 ft | 56 kts | 290° |
| 2026-04-23 02:20 | 32.72997 | -117.17522 | 197 ft | 61 kts | 286° |
| 2026-04-23 02:21 | 32.73128 | -117.18063 | 65 ft | 64 kts | 290° |
| 2026-04-23 02:21 | 32.73233 | -117.18486 | 17 ft | 40 kts | 285° |
| 2026-04-23 02:21 | 32.73301 | -117.18806 | 18 ft | 28 kts | 258° |
| 2026-04-23 02:21 | 32.73226 | -117.18841 | 17 ft | 0 kts | 122° |
| 2026-04-23 02:22 | 32.73216 | -117.18810 | 16 ft | 13 kts | 104° |
| 2026-04-23 02:22 | 32.73176 | -117.18649 | 16 ft | 22 kts | 99° |
| 2026-04-23 02:22 | 32.73135 | -117.18471 | 16 ft | 23 kts | 105° |
| 2026-04-23 02:23 | 32.73085 | -117.18275 | 16 ft | 26 kts | 108° |
| 2026-04-23 02:23 | 32.73038 | -117.18079 | 16 ft | 23 kts | 107° |
| 2026-04-23 02:23 | 32.72992 | -117.17908 | 17 ft | 18 kts | 112° |
| 2026-04-23 02:23 | 32.72964 | -117.17772 | 19 ft | 18 kts | 106° |
| 2026-04-23 02:24 | 32.72957 | -117.17664 | 21 ft | 0 kts | 78° |
| 2026-04-23 02:25 | 32.72959 | -117.17655 | 21 ft | 6 kts | 66° |
| 2026-04-23 02:25 | 32.73039 | -117.17657 | 22 ft | 21 kts | 283° |
| 2026-04-23 02:25 | 32.73048 | -117.17697 | 22 ft | 0 kts | 287° |
| 2026-04-23 02:26 | 32.73051 | -117.17709 | 21 ft | 13 kts | 285° |
| 2026-04-23 02:26 | 32.73137 | -117.18059 | 20 ft | 69 kts | 285° |
| 2026-04-23 02:26 | 32.73265 | -117.18633 | 184 ft | 75 kts | 288° |
| 2026-04-23 02:26 | 32.73403 | -117.19236 | 348 ft | 78 kts | 285° |
| 2026-04-23 02:27 | 32.73690 | -117.19794 | 396 ft | 90 kts | 340° |
| 2026-04-23 02:27 | 32.74264 | -117.19512 | 578 ft | 91 kts | 27° |
| 2026-04-23 02:27 | 32.74506 | -117.18900 | 784 ft | 99 kts | 109° |
| 2026-04-23 02:27 | 32.74432 | -117.18065 | 915 ft | 97 kts | 96° |
| 2026-04-23 02:28 | 32.74292 | -117.17321 | 1179 ft | 91 kts | 95° |
| 2026-04-23 02:28 | 32.74175 | -117.16570 | 1379 ft | 93 kts | 93° |
| 2026-04-23 02:28 | 32.74075 | -117.15811 | 1607 ft | 91 kts | 93° |
| 2026-04-23 02:28 | 32.73909 | -117.15050 | 1753 ft | 97 kts | 94° |
| 2026-04-23 02:29 | 32.73760 | -117.14259 | 1888 ft | 102 kts | 108° |
| 2026-04-23 02:29 | 32.73523 | -117.13525 | 2152 ft | 92 kts | 101° |
| 2026-04-23 02:29 | 32.73341 | -117.12757 | 2273 ft | 100 kts | 102° |
| 2026-04-23 02:29 | 32.73147 | -117.11968 | 2429 ft | 98 kts | 95° |
| 2026-04-23 02:30 | 32.72971 | -117.11152 | 2506 ft | 105 kts | 99° |
| 2026-04-23 02:30 | 32.72752 | -117.10307 | 2549 ft | 111 kts | 109° |
| 2026-04-23 02:30 | 32.72405 | -117.09495 | 2630 ft | 107 kts | 120° |
| 2026-04-23 02:30 | 32.72114 | -117.08659 | 2645 ft | 110 kts | 107° |
| 2026-04-23 02:31 | 32.71675 | -117.07945 | 2599 ft | 117 kts | 158° |
| 2026-04-23 02:31 | 32.70817 | -117.07886 | 2177 ft | 118 kts | 189° |
| 2026-04-23 02:31 | 32.70566 | -117.08421 | 1964 ft | 87 kts | 285° |
| 2026-04-23 02:31 | 32.70731 | -117.09045 | 1787 ft | 73 kts | 294° |
| 2026-04-23 02:32 | 32.70930 | -117.09598 | 1570 ft | 70 kts | 291° |
| 2026-04-23 02:32 | 32.71064 | -117.10052 | 1470 ft | 51 kts | 293° |
| 2026-04-23 02:32 | 32.71159 | -117.10468 | 1396 ft | 55 kts | 282° |
| 2026-04-23 02:32 | 32.71240 | -117.10919 | 1406 ft | 55 kts | 284° |
| 2026-04-23 02:33 | 32.71352 | -117.11379 | 1367 ft | 62 kts | 287° |
| 2026-04-23 02:33 | 32.71456 | -117.11871 | 1374 ft | 60 kts | 287° |
| 2026-04-23 02:33 | 32.71627 | -117.12397 | 1314 ft | 75 kts | 288° |
| 2026-04-23 02:33 | 32.71783 | -117.12997 | 1308 ft | 76 kts | 288° |
| 2026-04-23 02:34 | 32.71950 | -117.13589 | 1325 ft | 75 kts | 286° |
| 2026-04-23 02:34 | 32.72149 | -117.14127 | 1274 ft | 65 kts | 313° |
| 2026-04-23 02:34 | 32.72543 | -117.14318 | 1279 ft | 60 kts | 330° |
| 2026-04-23 02:34 | 32.72962 | -117.14574 | 1286 ft | 69 kts | 324° |
| 2026-04-23 02:35 | 32.73352 | -117.14877 | 1385 ft | 67 kts | 317° |
| 2026-04-23 02:35 | 32.73703 | -117.15237 | 1456 ft | 71 kts | 314° |
| 2026-04-23 02:35 | 32.74191 | -117.15135 | 1326 ft | 103 kts | 51° |
| 2026-04-23 02:35 | 32.74155 | -117.14296 | 1204 ft | 111 kts | 130° |
| 2026-04-23 02:36 | 32.73487 | -117.14066 | 1183 ft | 97 kts | 198° |
| 2026-04-23 02:36 | 32.72924 | -117.14428 | 1159 ft | 92 kts | 229° |
| 2026-04-23 02:36 | 32.72583 | -117.15063 | 1041 ft | 84 kts | 257° |
| 2026-04-23 02:36 | 32.72541 | -117.15691 | 881 ft | 70 kts | 271° |
| 2026-04-23 02:37 | 32.72664 | -117.16206 | 761 ft | 66 kts | 290° |
| 2026-04-23 02:37 | 32.72795 | -117.16747 | 526 ft | 70 kts | 287° |
| 2026-04-23 02:37 | 32.72933 | -117.17276 | 291 ft | 65 kts | 290° |
| 2026-04-23 02:37 | 32.73063 | -117.17765 | 115 ft | 56 kts | 290° |
| 2026-04-23 02:38 | 32.73161 | -117.18169 | 15 ft | 42 kts | 286° |
| 2026-04-23 02:38 | 32.73244 | -117.18426 | 17 ft | 24 kts | 321° |
| 2026-04-23 02:38 | 32.73335 | -117.18443 | 18 ft | 0 kts | 319° |
| 2026-04-23 02:40 | 32.73357 | -117.18497 | 18 ft | 16 kts | 287° |
| 2026-04-23 02:40 | 32.73425 | -117.18606 | 18 ft | 12 kts | 14° |
| 2026-04-23 02:40 | 32.73487 | -117.18601 | 18 ft | 0 kts | 13° |
| 2026-04-23 02:41 | 32.73489 | -117.18602 | 18 ft | 2 kts | 349° |
| 2026-04-23 02:41 | 32.73478 | -117.18619 | 18 ft | 7 kts | 193° |
| 2026-04-23 02:41 | 32.73384 | -117.18617 | 18 ft | 11 kts | 99° |
| 2026-04-23 02:41 | 32.73363 | -117.18521 | 18 ft | 22 kts | 104° |
| 2026-04-23 02:42 | 32.73307 | -117.18298 | 18 ft | 30 kts | 106° |
| 2026-04-23 02:42 | 32.73250 | -117.18053 | 18 ft | 30 kts | 105° |
| 2026-04-23 02:42 | 32.73198 | -117.17833 | 19 ft | 23 kts | 112° |
| 2026-04-23 02:42 | 32.73156 | -117.17668 | 22 ft | 18 kts | 106° |
| 2026-04-23 02:43 | 32.73095 | -117.17556 | 22 ft | 10 kts | 148° |
| 2026-04-23 02:43 | 32.73022 | -117.17551 | 22 ft | 13 kts | 259° |
| 2026-04-23 02:43 | 32.73055 | -117.17727 | 21 ft | 46 kts | 285° |
| 2026-04-23 02:43 | 32.73174 | -117.18247 | 91 ft | 72 kts | 286° |
| 2026-04-23 02:44 | 32.73315 | -117.18816 | 275 ft | 73 kts | 284° |
| 2026-04-23 02:44 | 32.73434 | -117.19442 | 352 ft | 84 kts | 284° |
| 2026-04-23 02:44 | 32.73628 | -117.20093 | 479 ft | 81 kts | 310° |
| 2026-04-23 02:44 | 32.74200 | -117.20108 | 595 ft | 87 kts | 4° |
| 2026-04-23 02:45 | 32.74695 | -117.19717 | 682 ft | 103 kts | 66° |
| 2026-04-23 02:45 | 32.74738 | -117.18837 | 775 ft | 105 kts | 81° |
| 2026-04-23 02:45 | 32.74631 | -117.18008 | 918 ft | 102 kts | 101° |
| 2026-04-23 02:45 | 32.74438 | -117.17199 | 1071 ft | 100 kts | 100° |
| 2026-04-23 02:46 | 32.74156 | -117.16421 | 1165 ft | 105 kts | 127° |
| 2026-04-23 02:46 | 32.73463 | -117.16285 | 853 ft | 98 kts | 194° |
| 2026-04-23 02:46 | 32.72911 | -117.16523 | 621 ft | 78 kts | 238° |
| 2026-04-23 02:46 | 32.72888 | -117.17117 | 336 ft | 73 kts | 289° |
| 2026-04-23 02:47 | 32.73040 | -117.17666 | 140 ft | 65 kts | 287° |
| 2026-04-23 02:47 | 32.73146 | -117.18121 | 42 ft | 50 kts | 288° |
| 2026-04-23 02:47 | 32.73233 | -117.18484 | 17 ft | 55 kts | 287° |
| 2026-04-23 02:47 | 32.73362 | -117.18964 | 133 ft | 62 kts | 290° |
| 2026-04-23 02:48 | 32.73484 | -117.19466 | 247 ft | 64 kts | 288° |
| 2026-04-23 02:48 | 32.73621 | -117.19970 | 365 ft | 64 kts | 290° |
| 2026-04-23 02:48 | 32.73912 | -117.20312 | 474 ft | 69 kts | 346° |
| 2026-04-23 02:48 | 32.74407 | -117.20223 | 554 ft | 78 kts | 1° |
| 2026-04-23 02:49 | 32.74855 | -117.19788 | 592 ft | 103 kts | 76° |
| 2026-04-23 02:49 | 32.74737 | -117.18938 | 711 ft | 103 kts | 98° |
| 2026-04-23 02:49 | 32.74586 | -117.18138 | 892 ft | 98 kts | 100° |
| 2026-04-23 02:49 | 32.74429 | -117.17346 | 1043 ft | 99 kts | 99° |
| 2026-04-23 02:50 | 32.74265 | -117.16549 | 1192 ft | 98 kts | 97° |
| 2026-04-23 02:50 | 32.74110 | -117.15756 | 1332 ft | 101 kts | 103° |
| 2026-04-23 02:50 | 32.73805 | -117.14944 | 1176 ft | 110 kts | 128° |
| 2026-04-23 02:50 | 32.73161 | -117.14701 | 896 ft | 94 kts | 189° |
| 2026-04-23 02:51 | 32.72685 | -117.15053 | 729 ft | 74 kts | 244° |
| 2026-04-23 02:51 | 32.72545 | -117.15603 | 615 ft | 69 kts | 272° |
| 2026-04-23 02:51 | 32.72617 | -117.16165 | 503 ft | 70 kts | 287° |
| 2026-04-23 02:51 | 32.72773 | -117.16701 | 395 ft | 65 kts | 291° |
| 2026-04-23 02:52 | 32.72910 | -117.17181 | 280 ft | 60 kts | 288° |
| 2026-04-23 02:52 | 32.73033 | -117.17660 | 168 ft | 62 kts | 286° |
| 2026-04-23 02:52 | 32.73154 | -117.18142 | 52 ft | 59 kts | 286° |
| 2026-04-23 02:52 | 32.73256 | -117.18565 | 17 ft | 44 kts | 286° |
| 2026-04-23 02:53 | 32.73359 | -117.18999 | 120 ft | 56 kts | 289° |
| 2026-04-23 02:53 | 32.73472 | -117.19485 | 209 ft | 72 kts | 285° |
| 2026-04-23 02:53 | 32.73902 | -117.19781 | 341 ft | 85 kts | 1° |
| 2026-04-23 02:53 | 32.74458 | -117.19601 | 539 ft | 83 kts | 7° |
| 2026-04-23 02:54 | 32.74725 | -117.19009 | 611 ft | 103 kts | 95° |
| 2026-04-23 02:54 | 32.74643 | -117.18188 | 743 ft | 104 kts | 103° |
| 2026-04-23 02:54 | 32.74361 | -117.17409 | 883 ft | 104 kts | 114° |
| 2026-04-23 02:54 | 32.74099 | -117.16655 | 1097 ft | 94 kts | 105° |
| 2026-04-23 02:55 | 32.73885 | -117.15934 | 1294 ft | 94 kts | 105° |
| 2026-04-23 02:55 | 32.73609 | -117.15173 | 1389 ft | 99 kts | 107° |
| 2026-04-23 02:55 | 32.73386 | -117.14389 | 1487 ft | 103 kts | 105° |
| 2026-04-23 02:55 | 32.73192 | -117.13559 | 1586 ft | 104 kts | 106° |
| 2026-04-23 02:56 | 32.72951 | -117.12757 | 1749 ft | 100 kts | 102° |
| 2026-04-23 02:56 | 32.72660 | -117.12010 | 1752 ft | 113 kts | 144° |
| 2026-04-23 02:56 | 32.71903 | -117.11942 | 1494 ft | 93 kts | 216° |
| 2026-04-23 02:56 | 32.71750 | -117.12512 | 1290 ft | 68 kts | 277° |
| 2026-04-23 02:57 | 32.71860 | -117.13039 | 1149 ft | 64 kts | 288° |
| 2026-04-23 02:57 | 32.71992 | -117.13546 | 989 ft | 67 kts | 285° |
| 2026-04-23 02:57 | 32.72147 | -117.14048 | 887 ft | 59 kts | 293° |
| 2026-04-23 02:57 | 32.72301 | -117.14491 | 814 ft | 55 kts | 288° |
| 2026-04-23 02:58 | 32.72394 | -117.14931 | 789 ft | 56 kts | 280° |
| 2026-04-23 02:58 | 32.72498 | -117.15420 | 716 ft | 62 kts | 289° |
| 2026-04-23 02:58 | 32.72614 | -117.15873 | 613 ft | 54 kts | 287° |
| 2026-04-23 02:58 | 32.72720 | -117.16306 | 489 ft | 56 kts | 287° |
| 2026-04-23 02:59 | 32.72832 | -117.16760 | 376 ft | 58 kts | 286° |
| 2026-04-23 02:59 | 32.72935 | -117.17220 | 250 ft | 57 kts | 289° |
| 2026-04-23 02:59 | 32.73038 | -117.17647 | 159 ft | 52 kts | 286° |
| 2026-04-23 02:59 | 32.73132 | -117.18046 | 71 ft | 49 kts | 283° |
| 2026-04-23 03:00 | 32.73225 | -117.18432 | 16 ft | 45 kts | 286° |
| 2026-04-23 03:00 | 32.73338 | -117.18887 | 100 ft | 62 kts | 288° |
| 2026-04-23 03:00 | 32.73445 | -117.19379 | 260 ft | 64 kts | 287° |
| 2026-04-23 03:00 | 32.73607 | -117.19904 | 382 ft | 68 kts | 291° |
| 2026-04-23 03:01 | 32.73824 | -117.20387 | 547 ft | 66 kts | 324° |
| 2026-04-23 03:01 | 32.74304 | -117.20244 | 666 ft | 77 kts | 21° |
| 2026-04-23 03:01 | 32.74789 | -117.19813 | 708 ft | 98 kts | 62° |
| 2026-04-23 03:01 | 32.74662 | -117.18954 | 726 ft | 109 kts | 105° |
| 2026-04-23 03:02 | 32.74432 | -117.18118 | 851 ft | 105 kts | 106° |
| 2026-04-23 03:02 | 32.74196 | -117.17314 | 1018 ft | 97 kts | 101° |
| 2026-04-23 03:02 | 32.74203 | -117.16563 | 1135 ft | 101 kts | 123° |
| 2026-04-23 03:02 | 32.73476 | -117.16280 | 811 ft | 109 kts | 181° |
| 2026-04-23 03:03 | 32.72955 | -117.16471 | 572 ft | 70 kts | 251° |
| 2026-04-23 03:03 | 32.72879 | -117.16996 | 380 ft | 64 kts | 283° |
| 2026-04-23 03:03 | 32.72997 | -117.17495 | 202 ft | 61 kts | 291° |
| 2026-04-23 03:03 | 32.73109 | -117.17969 | 98 ft | 57 kts | 286° |
| 2026-04-23 03:04 | 32.73210 | -117.18371 | 16 ft | 39 kts | 288° |
| 2026-04-23 03:04 | 32.73298 | -117.18742 | 50 ft | 59 kts | 286° |
| 2026-04-23 03:04 | 32.73426 | -117.19263 | 138 ft | 73 kts | 292° |
| 2026-04-23 03:04 | 32.73587 | -117.19842 | 319 ft | 73 kts | 290° |
| 2026-04-23 03:05 | 32.73796 | -117.20367 | 477 ft | 78 kts | 329° |
| 2026-04-23 03:05 | 32.74368 | -117.20273 | 582 ft | 88 kts | 12° |
| 2026-04-23 03:05 | 32.74840 | -117.19858 | 712 ft | 101 kts | 76° |
| 2026-04-23 03:05 | 32.74736 | -117.19068 | 766 ft | 91 kts | 103° |
| 2026-04-23 03:06 | 32.74568 | -117.18350 | 776 ft | 90 kts | 104° |
| 2026-04-23 03:06 | 32.74398 | -117.17638 | 838 ft | 91 kts | 105° |
| 2026-04-23 03:06 | 32.74210 | -117.16930 | 909 ft | 88 kts | 103° |
| 2026-04-23 03:06 | 32.74051 | -117.16254 | 1017 ft | 86 kts | 105° |
| 2026-04-23 03:07 | 32.73896 | -117.15574 | 1104 ft | 83 kts | 97° |
| 2026-04-23 03:07 | 32.73785 | -117.14908 | 1199 ft | 83 kts | 96° |
| 2026-04-23 03:07 | 32.73644 | -117.14237 | 1276 ft | 84 kts | 103° |
| 2026-04-23 03:07 | 32.73452 | -117.13570 | 1324 ft | 89 kts | 104° |
| 2026-04-23 03:08 | 32.73148 | -117.12927 | 1196 ft | 96 kts | 145° |
| 2026-04-23 03:08 | 32.72501 | -117.12798 | 1001 ft | 91 kts | 189° |
| 2026-04-23 03:08 | 32.72094 | -117.13197 | 871 ft | 77 kts | 260° |
| 2026-04-23 03:08 | 32.72092 | -117.13789 | 815 ft | 64 kts | 283° |
| 2026-04-23 03:09 | 32.72189 | -117.14257 | 730 ft | 56 kts | 287° |
| 2026-04-23 03:09 | 32.72290 | -117.14721 | 637 ft | 57 kts | 283° |
| 2026-04-23 03:09 | 32.72401 | -117.15170 | 592 ft | 57 kts | 288° |
| 2026-04-23 03:09 | 32.72525 | -117.15620 | 527 ft | 56 kts | 289° |
| 2026-04-23 03:10 | 32.72635 | -117.16053 | 452 ft | 54 kts | 287° |
| 2026-04-23 03:10 | 32.72742 | -117.16486 | 395 ft | 57 kts | 285° |
| 2026-04-23 03:10 | 32.72861 | -117.16949 | 292 ft | 58 kts | 289° |
| 2026-04-23 03:10 | 32.72967 | -117.17381 | 179 ft | 53 kts | 285° |
| 2026-04-23 03:11 | 32.73071 | -117.17813 | 80 ft | 53 kts | 290° |
| 2026-04-23 03:11 | 32.73165 | -117.18176 | 15 ft | 36 kts | 295° |
| 2026-04-23 03:11 | 32.73221 | -117.18395 | 16 ft | 19 kts | 302° |
| 2026-04-23 03:11 | 32.73314 | -117.18422 | 18 ft | 5 kts | 39° |
| 2026-04-23 03:12 | 32.73322 | -117.18411 | 18 ft | 0 kts | 53° |
| 2026-04-23 03:12 | 32.73325 | -117.18405 | 18 ft | 4 kts | 63° |
| 2026-04-23 03:12 | 32.73309 | -117.18301 | 18 ft | 21 kts | 104° |
| 2026-04-23 03:12 | 32.73258 | -117.18094 | 18 ft | 26 kts | 104° |
| 2026-04-23 03:13 | 32.73275 | -117.17979 | 18 ft | 12 kts | 18° |
| 2026-04-23 03:13 | 32.73363 | -117.17948 | 20 ft | 14 kts | 16° |
| 2026-04-23 03:13 | 32.73379 | -117.17909 | 21 ft | 0 kts | 126° |